Time;durP1;ratioP1;P1;durP2;ratioP2;P2;SDS_P1;SDS_P2;PMS_P1;PMS_P2;Temp;Humidity;BMP_temperature;BMP_pressure;BME280_temperature;BME280_humidity;BME280_pressure;Samples;Min_cycle;Max_cycle;Signal;HPM_P1;HPM_P2
2020/12/11 00:00:59;;;;;;;25.00;18.33;;;4.90;99.90;;;;;;4995510;28;20276;-42
2020/12/11 00:03:27;;;;;;;27.13;18.57;;;4.90;99.90;;;;;;4995564;28;20212;-42
2020/12/11 00:05:54;;;;;;;32.20;20.93;;;4.90;99.90;;;;;;4995215;28;20260;-42
2020/12/11 00:08:22;;;;;;;26.63;19.00;;;4.80;99.90;;;;;;4995300;28;20214;-43
2020/12/11 00:10:50;;;;;;;27.43;18.83;;;4.80;99.90;;;;;;4995541;28;20237;-43
2020/12/11 00:13:17;;;;;;;26.17;18.00;;;4.90;99.90;;;;;;4995206;28;20260;-42
2020/12/11 00:15:44;;;;;;;25.43;18.63;;;4.90;99.90;;;;;;4995177;28;20245;-42
2020/12/11 00:18:11;;;;;;;31.57;20.13;;;4.90;99.90;;;;;;4995572;28;20568;-45
2020/12/11 00:20:38;;;;;;;26.80;19.40;;;4.90;99.90;;;;;;4995173;28;20274;-44
2020/12/11 00:23:05;;;;;;;32.43;20.70;;;4.90;99.90;;;;;;4994889;28;20241;-44
2020/12/11 00:25:33;;;;;;;29.17;19.37;;;4.80;99.90;;;;;;4995132;28;20234;-42
2020/12/11 00:28:01;;;;;;;27.93;18.83;;;4.80;99.90;;;;;;4994770;28;20740;-42
2020/12/11 00:30:28;;;;;;;27.13;18.97;;;4.80;99.90;;;;;;4994940;28;20297;-42
2020/12/11 00:32:55;;;;;;;26.93;19.20;;;4.90;99.90;;;;;;4994910;28;20246;-43
2020/12/11 00:35:22;;;;;;;26.27;18.83;;;4.90;99.90;;;;;;4994701;28;20336;-43
2020/12/11 00:37:49;;;;;;;34.27;20.63;;;4.90;99.90;;;;;;4993703;28;20206;-43
2020/12/11 00:40:15;;;;;;;28.03;19.90;;;4.90;99.90;;;;;;4994828;28;20206;-44
2020/12/11 00:42:42;;;;;;;30.17;19.27;;;4.90;99.90;;;;;;4994698;28;20300;-42
2020/12/11 00:45:10;;;;;;;24.97;16.93;;;4.90;99.90;;;;;;4994589;28;20230;-43
2020/12/11 00:47:37;;;;;;;26.13;18.87;;;4.90;99.90;;;;;;4994573;28;20214;-45
2020/12/11 00:50:05;;;;;;;25.00;18.03;;;5.00;99.90;;;;;;4994345;28;20218;-43
2020/12/11 00:52:32;;;;;;;32.07;20.30;;;5.00;99.90;;;;;;4994604;28;20309;-44
2020/12/11 00:54:59;;;;;;;33.20;19.90;;;5.00;99.90;;;;;;4994572;28;20575;-42
2020/12/11 00:57:26;;;;;;;30.03;19.53;;;5.10;99.90;;;;;;4994565;28;20210;-42
2020/12/11 00:59:52;;;;;;;29.23;19.37;;;5.10;99.90;;;;;;4994572;28;20327;-43
2020/12/11 01:02:21;;;;;;;29.20;18.70;;;5.10;99.90;;;;;;4994064;28;20224;-42
2020/12/11 01:04:48;;;;;;;27.50;19.10;;;5.10;99.90;;;;;;4994104;28;20226;-41
2020/12/11 01:07:15;;;;;;;29.63;18.70;;;5.20;99.90;;;;;;4994511;28;20309;-46
2020/12/11 01:09:42;;;;;;;30.43;20.40;;;5.20;99.90;;;;;;4994386;28;20222;-44
2020/12/11 01:12:09;;;;;;;29.43;19.47;;;5.20;99.90;;;;;;4994465;28;20214;-45
2020/12/11 01:14:36;;;;;;;26.67;18.50;;;5.20;99.90;;;;;;4994250;28;20245;-48
2020/12/11 01:17:03;;;;;;;31.43;20.40;;;5.20;99.90;;;;;;4994049;28;20616;-46
2020/12/11 01:19:31;;;;;;;27.03;18.40;;;5.20;99.90;;;;;;4994039;28;20747;-46
2020/12/11 01:21:58;;;;;;;29.17;19.77;;;5.20;99.90;;;;;;4994044;28;20233;-44
2020/12/11 01:24:25;;;;;;;29.80;19.33;;;5.20;99.90;;;;;;4994021;28;20320;-44
2020/12/11 01:26:52;;;;;;;27.27;19.33;;;5.20;99.90;;;;;;4993915;28;20301;-44
2020/12/11 01:29:19;;;;;;;29.10;20.27;;;5.20;99.90;;;;;;4993854;28;20224;-46
2020/12/11 01:31:46;;;;;;;31.13;19.50;;;5.30;99.90;;;;;;4993833;28;20310;-48
2020/12/11 01:34:13;;;;;;;28.40;18.47;;;5.30;99.90;;;;;;4994017;28;20608;-44
2020/12/11 01:36:40;;;;;;;28.80;19.93;;;5.30;99.90;;;;;;4993815;28;20658;-46
2020/12/11 01:39:07;;;;;;;29.53;19.90;;;5.30;99.90;;;;;;4993856;28;20289;-47
2020/12/11 01:41:34;;;;;;;29.47;20.67;;;5.30;99.90;;;;;;4993685;28;20241;-40
2020/12/11 01:44:05;;;;;;;28.90;18.73;;;5.30;99.90;;;;;;4993486;28;20214;-40
2020/12/11 01:46:36;;;;;;;28.75;19.52;;;5.30;99.90;;;;;;4993875;28;20214;-40
2020/12/11 01:49:03;;;;;;;28.93;20.20;;;5.20;99.90;;;;;;4993258;28;20249;-41
2020/12/11 01:51:31;;;;;;;28.17;18.60;;;5.10;99.90;;;;;;4993668;28;20206;-40
2020/12/11 01:53:59;;;;;;;27.77;19.03;;;5.10;99.90;;;;;;4993432;28;20308;-42
2020/12/11 01:56:30;;;;;;;24.67;17.30;;;5.00;99.90;;;;;;4993519;28;20210;-40
2020/12/11 01:59:01;;;;;;;27.17;18.90;;;4.90;99.90;;;;;;4993331;28;20217;-46
2020/12/11 02:01:30;;;;;;;29.33;18.80;;;4.80;99.90;;;;;;4993584;28;20210;-43
2020/12/11 02:03:57;;;;;;;28.50;18.40;;;4.70;99.90;;;;;;4993169;28;20707;-41
2020/12/11 02:06:24;;;;;;;28.75;18.90;;;4.60;99.90;;;;;;4993113;28;20704;-41
2020/12/11 02:08:56;;;;;;;30.20;19.53;;;4.60;99.90;;;;;;4993261;28;20296;-41
2020/12/11 02:11:24;;;;;;;26.43;19.00;;;4.60;99.90;;;;;;4993131;28;20297;-41
2020/12/11 02:13:51;;;;;;;29.37;19.83;;;4.70;99.90;;;;;;4993049;28;20245;-41
2020/12/11 02:16:21;;;;;;;24.90;18.73;;;4.80;99.90;;;;;;4993085;28;20568;-41
2020/12/11 02:18:48;;;;;;;25.80;19.33;;;4.90;99.90;;;;;;4992772;28;20681;-41
2020/12/11 02:21:16;;;;;;;29.13;20.70;;;4.90;99.90;;;;;;4993274;28;20305;-41
2020/12/11 02:23:44;;;;;;;28.77;20.40;;;4.90;99.90;;;;;;4992611;28;20746;-43
2020/12/11 02:26:12;;;;;;;22.70;18.33;;;4.80;99.90;;;;;;4992981;28;20230;-45
2020/12/11 02:28:39;;;;;;;26.83;18.60;;;4.70;99.90;;;;;;4992822;28;20245;-47
2020/12/11 02:31:06;;;;;;;22.93;17.93;;;4.50;99.90;;;;;;4992814;28;20216;-44
2020/12/11 02:33:33;;;;;;;20.60;16.97;;;4.40;99.90;;;;;;4992906;28;20576;-46
2020/12/11 02:36:00;;;;;;;23.57;18.43;;;4.30;99.90;;;;;;4992919;28;20617;-42
2020/12/11 02:38:27;;;;;;;23.30;17.67;;;4.20;99.90;;;;;;4992740;28;20210;-47
2020/12/11 02:40:57;;;;;;;22.73;17.53;;;4.10;99.90;;;;;;4992981;28;20210;-45
2020/12/11 02:43:24;;;;;;;24.47;17.60;;;4.20;99.90;;;;;;4992684;28;20645;-42
2020/12/11 02:45:52;;;;;;;19.87;15.87;;;4.30;99.90;;;;;;4992639;28;20229;-43
2020/12/11 02:48:20;;;;;;;24.67;18.53;;;4.20;99.90;;;;;;4992692;28;20297;-42
2020/12/11 02:50:47;;;;;;;21.87;17.40;;;4.20;99.90;;;;;;4992522;28;20296;-40
2020/12/11 02:53:14;;;;;;;21.23;16.73;;;4.20;99.90;;;;;;4992574;28;20290;-41
2020/12/11 02:55:41;;;;;;;22.60;16.77;;;4.10;99.90;;;;;;4992733;28;20217;-41
2020/12/11 02:58:09;;;;;;;19.80;16.07;;;4.10;99.90;;;;;;4992740;28;20213;-41
2020/12/11 03:00:37;;;;;;;19.17;16.30;;;4.00;99.90;;;;;;4994017;28;20214;-41
2020/12/11 03:03:04;;;;;;;20.23;15.87;;;4.00;99.90;;;;;;4996665;28;20682;-41
2020/12/11 03:05:30;;;;;;;19.83;15.40;;;4.00;99.90;;;;;;4996403;28;20232;-41
2020/12/11 03:07:58;;;;;;;18.87;15.37;;;4.10;99.90;;;;;;4996750;28;20636;-45
2020/12/11 03:10:25;;;;;;;23.13;17.63;;;4.10;99.90;;;;;;4996672;28;20304;-43
2020/12/11 03:12:52;;;;;;;21.20;15.07;;;4.10;99.90;;;;;;4996492;28;20214;-44
2020/12/11 03:15:20;;;;;;;19.13;16.40;;;4.20;99.90;;;;;;4996316;28;20206;-40
2020/12/11 03:17:47;;;;;;;19.23;14.70;;;4.20;99.90;;;;;;4996271;28;20308;-49
2020/12/11 03:20:22;;;;;;;17.97;13.53;;;4.10;99.90;;;;;;4996528;28;20222;-45
2020/12/11 03:22:52;;;;;;;24.43;17.33;;;4.10;99.90;;;;;;4996191;28;20243;-42
2020/12/11 03:25:20;;;;;;;19.30;15.67;;;4.20;99.90;;;;;;4996316;28;20225;-42
2020/12/11 03:27:47;;;;;;;17.97;14.57;;;4.10;99.90;;;;;;4996117;28;20669;-42
2020/12/11 03:30:14;;;;;;;19.47;15.50;;;4.10;99.90;;;;;;4996110;28;20249;-41
2020/12/11 03:32:42;;;;;;;19.43;15.43;;;4.10;99.90;;;;;;4996115;28;20206;-43
2020/12/11 03:35:09;;;;;;;20.43;16.00;;;4.10;99.90;;;;;;4996364;28;20211;-49
2020/12/11 03:37:36;;;;;;;17.63;14.30;;;3.90;99.90;;;;;;4995927;28;20682;-43
2020/12/11 03:40:04;;;;;;;19.40;15.87;;;3.90;99.90;;;;;;4996039;28;20293;-48
2020/12/11 03:42:31;;;;;;;19.60;15.10;;;3.90;99.90;;;;;;4995850;28;20214;-45
2020/12/11 03:44:58;;;;;;;18.43;14.83;;;3.90;99.90;;;;;;4995858;28;20240;-41
2020/12/11 03:47:25;;;;;;;18.10;14.33;;;3.80;99.90;;;;;;4995783;28;20615;-40
2020/12/11 03:49:53;;;;;;;20.13;16.20;;;3.80;99.90;;;;;;4995771;28;20305;-44
2020/12/11 03:52:20;;;;;;;18.57;15.03;;;3.90;99.90;;;;;;4995638;28;20276;-43
2020/12/11 03:54:47;;;;;;;20.07;16.20;;;3.90;99.90;;;;;;4995140;28;20212;-43
2020/12/11 03:57:14;;;;;;;23.03;18.80;;;4.00;99.90;;;;;;4995700;28;20297;-43
2020/12/11 03:59:41;;;;;;;19.33;16.10;;;4.10;99.90;;;;;;4995421;28;20272;-46
2020/12/11 04:02:10;;;;;;;23.33;18.93;;;4.10;99.90;;;;;;4995720;28;20301;-42
2020/12/11 04:04:39;;;;;;;22.80;17.27;;;4.10;99.90;;;;;;4995492;28;20214;-44
2020/12/11 04:07:07;;;;;;;26.13;21.47;;;4.10;99.90;;;;;;4995541;28;20305;-42
2020/12/11 04:09:34;;;;;;;24.47;19.03;;;4.10;99.90;;;;;;4995331;28;20246;-42
2020/12/11 04:12:01;;;;;;;20.20;16.27;;;4.10;99.90;;;;;;4994886;28;20309;-43
2020/12/11 04:14:28;;;;;;;21.17;16.40;;;4.00;99.90;;;;;;4995241;28;20217;-43
2020/12/11 04:16:55;;;;;;;19.73;14.83;;;3.90;99.90;;;;;;4995298;28;20256;-42
2020/12/11 04:19:22;;;;;;;43.13;31.20;;;3.80;99.90;;;;;;4995317;28;20630;-43
2020/12/11 04:21:50;;;;;;;26.40;20.80;;;3.70;99.90;;;;;;4994962;28;20313;-42
2020/12/11 04:24:18;;;;;;;23.50;19.30;;;3.60;99.90;;;;;;4995188;28;20300;-43
2020/12/11 04:26:45;;;;;;;20.20;17.27;;;3.70;99.90;;;;;;4994877;28;20319;-45
2020/12/11 04:29:12;;;;;;;27.83;21.13;;;3.60;99.90;;;;;;4995078;28;20214;-42
2020/12/11 04:31:39;;;;;;;24.47;19.30;;;3.60;99.90;;;;;;4994807;28;20688;-41
2020/12/11 04:34:06;;;;;;;20.20;17.00;;;3.40;99.90;;;;;;4995059;28;20210;-42
2020/12/11 04:36:34;;;;;;;19.33;16.20;;;3.30;99.90;;;;;;4994842;28;20639;-40
2020/12/11 04:39:00;;;;;;;18.70;15.57;;;3.30;99.90;;;;;;4994803;28;20300;-44
2020/12/11 04:41:30;;;;;;;17.60;15.20;;;3.20;99.90;;;;;;4994728;28;20214;-41
2020/12/11 04:44:02;;;;;;;24.30;20.00;;;3.10;99.90;;;;;;4994717;28;20636;-42
2020/12/11 04:46:30;;;;;;;23.57;17.77;;;3.00;99.90;;;;;;4994712;28;20229;-41
2020/12/11 04:48:58;;;;;;;24.93;20.00;;;2.90;99.90;;;;;;4994656;28;20215;-42
2020/12/11 04:51:29;;;;;;;31.53;22.77;;;2.80;99.90;;;;;;4994667;28;20406;-41
2020/12/11 04:53:58;;;;;;;22.83;16.17;;;2.70;99.90;;;;;;4994627;28;20249;-42
2020/12/11 04:56:26;;;;;;;26.33;19.73;;;2.70;99.90;;;;;;4994404;28;20311;-41
2020/12/11 04:58:55;;;;;;;27.17;20.10;;;2.70;99.90;;;;;;4994426;28;20245;-41
2020/12/11 05:01:29;;;;;;;25.33;19.40;;;2.70;99.90;;;;;;4994302;28;20241;-40
2020/12/11 05:03:57;;;;;;;24.47;18.03;;;2.70;99.90;;;;;;4994281;28;20214;-41
2020/12/11 05:06:25;;;;;;;23.80;17.67;;;2.70;99.90;;;;;;4994000;28;20221;-41
2020/12/11 05:09:13;;;;;;;20.77;16.27;;;2.70;99.90;;;;;;4994323;28;20214;-41
2020/12/11 05:11:42;;;;;;;21.00;17.13;;;2.70;99.90;;;;;;4993909;28;20268;-40
2020/12/11 05:14:31;;;;;;;22.27;17.70;;;2.70;99.90;;;;;;4994016;28;20572;-42
2020/12/11 05:17:00;;;;;;;19.40;16.10;;;2.80;99.90;;;;;;4993853;28;20285;-41
2020/12/11 05:19:28;;;;;;;25.43;17.73;;;2.80;99.90;;;;;;4993931;28;20241;-41
2020/12/11 05:22:08;;;;;;;21.03;17.00;;;2.80;99.90;;;;;;4993649;28;20305;-41
2020/12/11 05:24:42;;;;;;;26.30;20.17;;;2.80;99.90;;;;;;4993312;28;20301;-41
2020/12/11 05:27:31;;;;;;;25.83;21.83;;;2.80;99.90;;;;;;4993587;28;20710;-44
2020/12/11 05:30:00;;;;;;;26.30;21.70;;;2.80;99.90;;;;;;4993482;28;20296;-43
2020/12/11 05:32:39;;;;;;;28.93;21.70;;;2.70;99.90;;;;;;4993838;28;20301;-43
2020/12/11 05:35:08;;;;;;;23.40;19.00;;;2.60;99.90;;;;;;4993715;28;20645;-41
2020/12/11 05:37:47;;;;;;;18.87;15.17;;;2.50;99.90;;;;;;4993488;28;20647;-41
2020/12/11 05:40:19;;;;;;;20.23;15.93;;;2.50;99.90;;;;;;4993508;28;20210;-41
2020/12/11 05:43:12;;;;;;;19.27;15.40;;;2.50;99.90;;;;;;4993788;28;20560;-42
2020/12/11 05:45:47;;;;;;;21.87;16.53;;;2.50;99.90;;;;;;4993591;28;20233;-41
2020/12/11 05:48:15;;;;;;;18.63;14.87;;;2.40;99.90;;;;;;4993842;28;20220;-42
2020/12/11 05:50:42;;;;;;;21.63;16.17;;;2.40;99.90;;;;;;4993640;28;20754;-41
2020/12/11 05:53:09;;;;;;;20.17;15.63;;;2.40;99.90;;;;;;4993470;28;20249;-42
2020/12/11 05:55:36;;;;;;;23.10;16.73;;;2.40;99.90;;;;;;4993295;28;20233;-45
2020/12/11 05:58:04;;;;;;;21.67;16.17;;;2.40;99.90;;;;;;4993465;28;20297;-42
2020/12/11 06:00:31;;;;;;;17.97;15.33;;;2.40;99.90;;;;;;4993295;28;20296;-42
2020/12/11 06:03:01;;;;;;;22.27;16.93;;;2.40;99.90;;;;;;4993189;28;20238;-41
2020/12/11 06:05:29;;;;;;;19.13;15.10;;;2.40;99.90;;;;;;4993427;28;20276;-42
2020/12/11 06:08:00;;;;;;;21.10;16.43;;;2.40;99.90;;;;;;4993129;28;20232;-43
2020/12/11 06:10:27;;;;;;;21.97;16.20;;;2.30;99.90;;;;;;4993003;28;20226;-42
2020/12/11 06:12:54;;;;;;;22.87;17.57;;;2.30;99.90;;;;;;4992991;28;20644;-42
2020/12/11 06:15:31;;;;;;;21.17;17.13;;;2.30;99.90;;;;;;4992879;28;20224;-42
2020/12/11 06:18:03;;;;;;;21.03;16.50;;;2.30;99.90;;;;;;4993299;28;20217;-42
2020/12/11 06:20:31;;;;;;;17.90;15.70;;;2.30;99.90;;;;;;4993301;28;20304;-42
2020/12/11 06:23:23;;;;;;;22.00;16.17;;;2.30;99.90;;;;;;4993114;28;20248;-42
2020/12/11 06:25:53;;;;;;;21.23;16.90;;;2.20;99.90;;;;;;4993152;28;20558;-44
2020/12/11 06:28:42;;;;;;;21.03;16.97;;;2.20;99.90;;;;;;4993006;28;20210;-44
2020/12/11 06:31:11;;;;;;;23.43;17.17;;;2.20;99.90;;;;;;4992883;28;20210;-43
2020/12/11 06:33:41;;;;;;;20.63;15.97;;;2.20;99.90;;;;;;4992624;28;20210;-41
2020/12/11 06:36:08;;;;;;;20.33;16.80;;;2.20;99.90;;;;;;4992851;28;20228;-41
2020/12/11 06:38:44;;;;;;;24.93;17.53;;;2.20;99.90;;;;;;4992651;28;20700;-42
2020/12/11 06:41:12;;;;;;;22.90;17.67;;;2.20;99.90;;;;;;4992742;28;20216;-42
2020/12/11 06:43:41;;;;;;;24.63;18.23;;;2.20;99.90;;;;;;4992741;28;20214;-42
2020/12/11 06:46:19;;;;;;;27.03;20.00;;;2.20;99.90;;;;;;4992645;28;20222;-44
2020/12/11 06:49:10;;;;;;;26.80;17.23;;;2.30;99.90;;;;;;4997170;28;20231;-43
2020/12/11 06:52:09;;;;;;;22.93;17.03;;;2.30;99.90;;;;;;5012163;28;20260;-41
2020/12/11 06:54:55;;;;;;;24.20;17.97;;;2.20;99.90;;;;;;5012173;28;20249;-41
2020/12/11 06:57:49;;;;;;;26.50;17.97;;;2.20;99.90;;;;;;4992613;28;20253;-41
2020/12/11 07:00:29;;;;;;;22.87;16.70;;;2.30;99.90;;;;;;4992511;28;20210;-44
2020/12/11 07:03:27;;;;;;;23.73;17.13;;;2.30;99.90;;;;;;4992442;28;20214;-44
2020/12/11 07:06:03;;;;;;;28.07;20.10;;;2.30;99.90;;;;;;4992600;28;20234;-45
2020/12/11 07:08:31;;;;;;;29.77;22.17;;;2.30;99.90;;;;;;4992654;28;20292;-42
2020/12/11 07:11:05;;;;;;;22.90;17.77;;;2.30;99.90;;;;;;4992545;28;20293;-43
2020/12/11 07:13:34;;;;;;;27.80;18.73;;;2.30;99.90;;;;;;4992282;28;20400;-43
2020/12/11 07:16:02;;;;;;;26.50;17.77;;;2.40;99.90;;;;;;4992703;28;20301;-43
2020/12/11 07:18:30;;;;;;;25.50;18.27;;;2.50;99.90;;;;;;4992390;28;20519;-46
2020/12/11 07:20:58;;;;;;;25.77;19.07;;;2.50;99.90;;;;;;4992640;28;20233;-45
2020/12/11 07:23:26;;;;;;;27.17;20.17;;;2.60;99.90;;;;;;4992083;28;20246;-45
2020/12/11 07:25:55;;;;;;;26.43;22.07;;;2.60;99.90;;;;;;4992187;28;20265;-43
2020/12/11 07:28:22;;;;;;;25.33;18.60;;;2.70;99.90;;;;;;4992545;28;20295;-43
2020/12/11 07:30:49;;;;;;;27.30;19.10;;;2.70;99.90;;;;;;4992276;28;20249;-46
2020/12/11 07:33:17;;;;;;;26.37;20.60;;;2.70;99.90;;;;;;4992215;28;20661;-43
2020/12/11 07:35:46;;;;;;;27.23;19.53;;;2.70;99.90;;;;;;4992314;28;20206;-45
2020/12/11 07:38:14;;;;;;;27.50;19.70;;;2.70;99.90;;;;;;4992410;28;20553;-43
2020/12/11 07:40:42;;;;;;;28.87;20.97;;;2.80;99.90;;;;;;4992195;28;20237;-40
2020/12/11 07:43:10;;;;;;;26.07;20.60;;;2.80;99.90;;;;;;4992320;28;20297;-42
2020/12/11 07:45:38;;;;;;;25.23;20.13;;;2.80;99.90;;;;;;4992385;28;20245;-43
2020/12/11 07:48:05;;;;;;;29.73;22.23;;;2.90;99.90;;;;;;4996035;28;20240;-43
2020/12/11 07:50:32;;;;;;;31.43;23.73;;;2.80;99.90;;;;;;4996034;28;20249;-41
2020/12/11 07:53:00;;;;;;;27.47;21.53;;;2.80;99.90;;;;;;4995771;28;20295;-40
2020/12/11 07:55:30;;;;;;;28.67;21.57;;;2.80;99.90;;;;;;4995693;28;20301;-42
2020/12/11 07:58:00;;;;;;;29.53;21.17;;;2.80;99.90;;;;;;4995169;28;20252;-42
2020/12/11 08:00:27;;;;;;;26.80;20.43;;;2.80;99.90;;;;;;4995765;28;20210;-44
2020/12/11 08:02:56;;;;;;;28.40;21.20;;;3.00;99.90;;;;;;5008284;28;20289;-44
2020/12/11 08:05:23;;;;;;;26.40;20.37;;;3.10;99.90;;;;;;5014912;28;20292;-42
2020/12/11 08:07:52;;;;;;;22.83;17.93;;;3.20;99.90;;;;;;5015331;28;20303;-45
2020/12/11 08:10:21;;;;;;;31.13;23.13;;;3.20;99.90;;;;;;5014977;28;20692;-42
2020/12/11 08:12:49;;;;;;;27.57;20.77;;;3.20;99.90;;;;;;5015067;28;20216;-42
2020/12/11 08:15:34;;;;;;;25.33;19.53;;;3.30;99.90;;;;;;5015340;28;20633;-42
2020/12/11 08:18:22;;;;;;;23.23;18.07;;;3.30;99.90;;;;;;5014697;28;20240;-43
2020/12/11 08:20:55;;;;;;;24.40;19.53;;;3.40;99.90;;;;;;5014958;28;20214;-45
2020/12/11 08:23:38;;;;;;;24.13;19.40;;;3.30;99.90;;;;;;5014608;28;20244;-42
2020/12/11 08:26:16;;;;;;;33.73;22.33;;;3.20;99.90;;;;;;5014784;28;20778;-42
2020/12/11 08:28:45;;;;;;;49.97;36.10;;;3.20;99.90;;;;;;5014499;28;20304;-45
2020/12/11 08:31:37;;;;;;;29.40;20.43;;;3.20;99.90;;;;;;5014837;28;20213;-42
2020/12/11 08:34:07;;;;;;;26.33;18.60;;;3.20;99.90;;;;;;5014575;28;20209;-42
2020/12/11 08:36:35;;;;;;;29.87;22.57;;;3.20;99.90;;;;;;5014629;28;20228;-42
2020/12/11 08:39:08;;;;;;;24.45;18.60;;;3.20;99.90;;;;;;5014706;28;20304;-43
2020/12/11 08:41:38;;;;;;;22.60;16.45;;;3.10;99.90;;;;;;5014626;28;20292;-42
2020/12/11 08:44:09;;;;;;;22.50;16.67;;;3.10;99.90;;;;;;5014293;28;20232;-43
2020/12/11 08:46:49;;;;;;;24.90;17.07;;;3.10;99.90;;;;;;5014292;28;20236;-42
2020/12/11 08:49:19;;;;;;;27.47;18.33;;;3.10;99.90;;;;;;5014169;28;20217;-42
2020/12/11 08:51:46;;;;;;;26.30;16.77;;;3.10;99.90;;;;;;5014250;28;20755;-42
2020/12/11 08:54:14;;;;;;;21.47;16.37;;;3.00;99.90;;;;;;5014192;28;20578;-42
2020/12/11 08:56:45;;;;;;;22.93;16.10;;;3.00;99.90;;;;;;5014159;28;20288;-42
2020/12/11 08:59:12;;;;;;;21.67;15.87;;;3.00;99.90;;;;;;5012857;28;20218;-42
2020/12/11 09:01:41;;;;;;;22.50;16.10;;;3.00;99.90;;;;;;5013914;28;20237;-42
2020/12/11 09:04:09;;;;;;;22.90;15.57;;;3.00;99.90;;;;;;5014476;28;20264;-42
2020/12/11 09:06:37;;;;;;;24.93;18.27;;;3.00;99.90;;;;;;5013976;28;20281;-42
2020/12/11 09:09:04;;;;;;;24.67;19.03;;;3.10;99.90;;;;;;5013885;28;20300;-43
2020/12/11 09:11:31;;;;;;;22.80;17.47;;;3.10;99.90;;;;;;5013977;28;20295;-43
2020/12/11 09:13:58;;;;;;;23.57;16.93;;;3.20;99.90;;;;;;5014097;28;20296;-46
2020/12/11 09:16:25;;;;;;;22.80;15.63;;;3.10;99.90;;;;;;5013577;28;20300;-43
2020/12/11 09:18:53;;;;;;;24.27;16.20;;;3.20;99.90;;;;;;5013986;28;20209;-43
2020/12/11 09:21:20;;;;;;;21.00;16.00;;;3.20;99.90;;;;;;5013434;28;20256;-42
2020/12/11 09:23:48;;;;;;;22.87;17.20;;;3.30;99.90;;;;;;5013107;28;20601;-43
2020/12/11 09:26:15;;;;;;;24.57;16.67;;;3.30;99.90;;;;;;5013314;28;20229;-42
2020/12/11 09:28:46;;;;;;;24.23;17.00;;;3.40;99.90;;;;;;5013425;28;20288;-44
2020/12/11 09:31:20;;;;;;;22.23;15.37;;;3.40;99.90;;;;;;5013687;28;20224;-41
2020/12/11 09:33:48;;;;;;;20.57;16.90;;;3.40;99.90;;;;;;5013168;28;20209;-41
2020/12/11 09:36:16;;;;;;;25.63;17.40;;;3.50;99.90;;;;;;5013484;28;20271;-42
2020/12/11 09:38:43;;;;;;;24.57;16.97;;;3.50;99.90;;;;;;5013602;28;20206;-44
2020/12/11 09:41:13;;;;;;;19.27;14.90;;;3.50;99.90;;;;;;5013315;28;20296;-42
2020/12/11 09:43:59;;;;;;;22.87;16.47;;;3.50;99.90;;;;;;5013457;28;20244;-46
2020/12/11 09:46:33;;;;;;;20.87;14.73;;;3.50;99.90;;;;;;5013251;28;20237;-46
2020/12/11 09:49:04;;;;;;;19.83;13.80;;;3.60;99.90;;;;;;5013065;28;20613;-42
2020/12/11 09:54:25;;;;;;;19.83;15.67;;;3.70;99.90;;;;;;5002802;28;20692;-48
2020/12/11 09:56:55;;;;;;;23.07;16.77;;;3.70;99.90;;;;;;5015769;28;20550;-44
2020/12/11 09:59:27;;;;;;;25.80;16.13;;;3.80;99.90;;;;;;5012666;28;20217;-43
2020/12/11 10:02:13;;;;;;;29.67;17.07;;;3.80;99.90;;;;;;5013237;28;20213;-43
2020/12/11 10:04:40;;;;;;;41.30;29.27;;;3.90;99.90;;;;;;5013119;28;20568;-43
2020/12/11 10:07:08;;;;;;;27.10;18.10;;;4.00;99.90;;;;;;5013118;28;20230;-41
2020/12/11 10:09:36;;;;;;;38.40;25.57;;;4.10;99.90;;;;;;5012537;28;20237;-42
2020/12/11 10:12:04;;;;;;;54.03;35.77;;;4.20;99.90;;;;;;5012728;28;20209;-43
2020/12/11 10:14:33;;;;;;;92.13;59.37;;;4.40;99.90;;;;;;5012639;28;20209;-41
2020/12/11 10:17:00;;;;;;;28.00;19.20;;;4.60;99.90;;;;;;5012686;28;20291;-44
2020/12/11 10:19:27;;;;;;;29.57;21.23;;;4.60;99.90;;;;;;5012670;28;20561;-43
2020/12/11 10:21:55;;;;;;;30.47;21.07;;;4.70;99.90;;;;;;5012589;28;20301;-42
2020/12/11 10:24:24;;;;;;;28.30;20.30;;;4.90;99.90;;;;;;5012296;28;20623;-45
2020/12/11 10:26:51;;;;;;;25.40;18.33;;;5.00;99.90;;;;;;5012444;28;20320;-43
2020/12/11 10:29:18;;;;;;;30.50;24.00;;;5.00;99.90;;;;;;5012321;28;20304;-41
2020/12/11 10:31:45;;;;;;;23.13;17.43;;;5.00;99.90;;;;;;5012516;28;20245;-43
2020/12/11 10:34:13;;;;;;;26.90;21.90;;;5.10;99.90;;;;;;5012532;28;20276;-43
2020/12/11 10:36:41;;;;;;;26.87;19.07;;;5.10;99.90;;;;;;5012465;28;20206;-43
2020/12/11 10:39:09;;;;;;;25.13;17.93;;;5.20;99.90;;;;;;5012347;28;20220;-42
2020/12/11 10:41:41;;;;;;;26.00;19.27;;;5.20;99.90;;;;;;5012248;28;20642;-42
2020/12/11 10:44:08;;;;;;;22.47;17.67;;;5.20;99.90;;;;;;5012468;28;20307;-42
2020/12/11 10:46:35;;;;;;;25.93;20.27;;;5.20;99.90;;;;;;5012472;28;20264;-43
2020/12/11 10:49:02;;;;;;;43.47;28.20;;;5.20;99.90;;;;;;5012361;28;20255;-44
2020/12/11 10:51:29;;;;;;;25.00;18.50;;;5.20;99.90;;;;;;5012339;28;20216;-42
2020/12/11 10:53:56;;;;;;;24.47;18.80;;;5.20;99.90;;;;;;5012148;28;20219;-44
2020/12/11 10:56:24;;;;;;;25.73;18.98;;;5.40;99.90;;;;;;5011839;28;20243;-46
2020/12/11 10:58:56;;;;;;;24.20;18.90;;;5.50;99.90;;;;;;5012341;28;20292;-45
2020/12/11 11:01:23;;;;;;;29.60;22.27;;;5.60;99.90;;;;;;5012267;28;20205;-42
2020/12/11 11:03:50;;;;;;;23.60;18.13;;;5.60;99.90;;;;;;5012117;28;20210;-43
2020/12/11 11:06:22;;;;;;;23.90;17.47;;;5.70;99.90;;;;;;5011941;28;20264;-43
2020/12/11 11:08:58;;;;;;;26.10;19.33;;;5.70;99.90;;;;;;5011957;28;20228;-42
2020/12/11 11:11:29;;;;;;;23.40;18.23;;;5.80;99.90;;;;;;5012248;28;20219;-41
2020/12/11 11:14:13;;;;;;;27.80;18.42;;;5.90;99.90;;;;;;5012091;28;20795;-41
2020/12/11 11:16:58;;;;;;;24.20;19.33;;;6.10;99.90;;;;;;5011969;28;20216;-41
2020/12/11 11:19:30;;;;;;;24.07;18.50;;;6.10;99.90;;;;;;5011868;28;20683;-41
2020/12/11 11:22:16;;;;;;;21.52;16.63;;;6.10;99.90;;;;;;5013778;28;20694;-41
2020/12/11 11:27:32;;;;;;;20.10;16.37;;;5.80;99.90;;;;;;5013257;28;20635;-41
2020/12/11 11:30:00;;;;;;;22.37;17.57;;;5.70;99.90;;;;;;5015711;28;20205;-41
2020/12/11 11:32:27;;;;;;;26.07;17.70;;;5.70;99.90;;;;;;5015471;28;20585;-45
2020/12/11 11:34:54;;;;;;;23.90;18.07;;;5.80;99.90;;;;;;5015825;28;20392;-45
2020/12/11 11:37:22;;;;;;;23.57;18.67;;;5.90;99.90;;;;;;5015557;28;20296;-44
2020/12/11 11:39:49;;;;;;;22.37;15.97;;;5.90;99.90;;;;;;5015358;28;20255;-44
2020/12/11 11:42:16;;;;;;;22.33;16.70;;;6.00;99.90;;;;;;5015337;28;20663;-42
2020/12/11 11:44:55;;;;;;;21.27;16.57;;;6.00;99.90;;;;;;5015291;28;20668;-43
2020/12/11 11:47:24;;;;;;;21.77;16.47;;;6.00;99.90;;;;;;5015463;28;20229;-43
2020/12/11 11:50:12;;;;;;;19.97;16.53;;;6.00;99.90;;;;;;5015391;28;20219;-44
2020/12/11 11:52:41;;;;;;;20.27;15.97;;;6.00;99.90;;;;;;5015137;28;20292;-43
2020/12/11 11:55:10;;;;;;;20.23;16.53;;;5.90;99.90;;;;;;5015514;28;20209;-44
2020/12/11 11:57:37;;;;;;;22.77;16.13;;;5.90;99.90;;;;;;5015405;28;20217;-43
2020/12/11 12:00:06;;;;;;;18.80;15.45;;;6.00;99.90;;;;;;5015109;28;20300;-43
2020/12/11 12:02:34;;;;;;;18.30;15.40;;;6.10;99.90;;;;;;5015191;28;20210;-43
2020/12/11 12:05:02;;;;;;;24.53;19.23;;;6.10;99.90;;;;;;5015174;28;20500;-45
2020/12/11 12:07:29;;;;;;;19.73;16.48;;;6.00;99.90;;;;;;5014923;28;20225;-45
2020/12/11 12:09:56;;;;;;;21.45;16.65;;;6.00;99.90;;;;;;5014856;28;20602;-43
2020/12/11 12:12:23;;;;;;;23.97;17.80;;;6.00;99.90;;;;;;5015158;28;20308;-44
2020/12/11 12:14:51;;;;;;;26.27;17.90;;;6.10;99.90;;;;;;5014993;28;20581;-43
2020/12/11 12:17:22;;;;;;;23.93;19.63;;;6.10;99.90;;;;;;5014872;28;20615;-46
2020/12/11 12:19:54;;;;;;;23.20;19.30;;;6.20;99.90;;;;;;5014673;28;20224;-42
2020/12/11 12:30:32;;;;;;;25.97;18.97;;;5.80;99.90;;;;;;5014466;28;20296;-44
2020/12/11 12:33:49;;;;;;;24.73;18.33;;;5.70;99.90;;;;;;5014419;28;20660;-43
2020/12/11 12:39:00;;;;;;;28.43;20.53;;;5.80;99.90;;;;;;5014575;28;20296;-42
2020/12/11 12:44:12;;;;;;;25.50;17.60;;;5.80;99.90;;;;;;5014368;28;20625;-43
2020/12/11 12:46:45;;;;;;;28.42;19.67;;;5.80;99.90;;;;;;5014393;28;20316;-44
2020/12/11 12:49:12;;;;;;;22.80;16.63;;;5.80;99.90;;;;;;5014384;28;20284;-43
2020/12/11 12:51:40;;;;;;;21.87;17.43;;;5.90;99.90;;;;;;5014038;28;20206;-43
2020/12/11 12:54:07;;;;;;;24.05;16.42;;;5.90;99.90;;;;;;5014267;28;20220;-44
2020/12/11 12:56:39;;;;;;;22.60;17.03;;;6.00;99.90;;;;;;5014013;28;20201;-43
2020/12/11 12:59:11;;;;;;;24.57;17.00;;;6.00;99.90;;;;;;5014094;28;20317;-46
2020/12/11 13:01:52;;;;;;;22.13;16.53;;;6.10;99.90;;;;;;5014422;28;20213;-45
2020/12/11 13:04:23;;;;;;;24.00;19.00;;;6.20;99.90;;;;;;5014122;28;20240;-44
2020/12/11 13:06:52;;;;;;;26.30;21.57;;;6.40;99.90;;;;;;5014033;28;20349;-43
2020/12/11 13:09:19;;;;;;;37.33;27.10;;;6.40;99.90;;;;;;5013766;28;20245;-42